SLET/SRZ METAR and TAF weather

Enter ICAO airport designator
Station Type Date Time Source
SLET METAR 2022/01/27 23:00 UTC NOAA

SLET 272300Z 14004KT 8000 VCSH BKN017 FEW030CB OVC070 28/22 Q1008


Station Type Date Time Source
SLET Decoded METAR 2022/01/27 23:00 UTC NOAA

Santa Cruz / El Trompillo, Bolivia (SLET) 17-48S 063-11W 414M
Jan 27, 2022 - 06:00 PM EST / 2022.01.27 2300 UTC
Wind: from the SE (140 degrees) at 5 MPH (4 KT):0
Visibility: 4 mile(s):0
Sky conditions: overcast
Weather: showers in the vicinity; Cumulonimbus clouds observed
Temperature: 82 F (28 C)
Dew Point: 71 F (22 C)
Relative Humidity: 69%
Pressure (altimeter): 29.77 in. Hg (1008 hPa)
ob: SLET 272300Z 14004KT 8000 VCSH BKN017 FEW030CB OVC070 28/22 Q1008
cycle: 23

Station Type Date Time Source
SLET TAF 2022/01/27 18:55 UTC NOAA

TAF SLET 271600Z 2718/2818 19012KT 9999 FEW015 BKN017 FEW027TCU TX33/2719Z TN22/2810Z
TEMPO 2721/2723 18010G26KT 7000 TSRA BKN017 FEW030CB BKN070
BECMG 2801/2803 18017KT 8000 RA BKN013 OVC070
BECMG 2807/2811 18007KT 9999 NSW BKN008

Example: see airport list